createdAt,value
2018-04-07T00:00:14.910Z,76.50
2018-04-07T00:01:14.817Z,76.59
2018-04-07T00:02:14.703Z,77.07
2018-04-07T00:03:14.495Z,76.97
2018-04-07T00:04:14.390Z,76.97
2018-04-07T00:05:15.350Z,77.07
2018-04-07T00:06:15.221Z,77.07
2018-04-07T00:07:15.374Z,77.45
2018-04-07T00:08:15.655Z,77.26
2018-04-07T00:09:14.932Z,77.36
2018-04-07T00:10:15.090Z,77.36
2018-04-07T00:11:57.322Z,77.36
2018-04-07T00:12:57.695Z,77.36
2018-04-07T00:13:57.666Z,77.26
2018-04-07T00:14:57.364Z,77.26
2018-04-07T00:15:57.994Z,77.26
2018-04-07T00:16:57.944Z,77.45
2018-04-07T00:17:58.122Z,77.55
2018-04-07T00:18:57.757Z,77.83
2018-04-07T00:19:58.001Z,78.02
2018-04-07T00:20:57.616Z,77.98
2018-04-07T00:21:57.522Z,78.08
2018-04-07T00:22:57.689Z,78.17
2018-04-07T00:23:57.376Z,78.11
2018-04-07T00:24:57.198Z,78.02
2018-04-07T00:25:58.143Z,78.11
2018-04-07T00:26:57.722Z,78.21
2018-04-07T00:27:57.597Z,78.11
2018-04-07T00:28:57.543Z,78.02
2018-04-07T00:29:57.217Z,78.02
2018-04-07T00:30:58.087Z,78.11
2018-04-07T00:31:58.080Z,78.21
2018-04-07T00:32:57.444Z,78.11
2018-04-07T00:33:57.331Z,78.02
2018-04-07T00:34:57.940Z,77.83
2018-04-07T00:35:57.657Z,78.02
2018-04-07T00:36:57.327Z,77.83
2018-04-07T00:37:57.795Z,77.92
2018-04-07T00:38:57.501Z,78.17
2018-04-07T00:39:57.542Z,78.08
2018-04-07T00:40:57.412Z,78.17
2018-04-07T00:41:57.426Z,78.27
2018-04-07T00:43:19.010Z,77.98
2018-04-07T00:44:18.828Z,77.89
2018-04-07T00:45:19.485Z,77.73
2018-04-07T00:46:19.286Z,77.64
2018-04-07T00:47:19.286Z,77.73
2018-04-07T00:48:39.099Z,77.89
2018-04-07T00:49:39.866Z,77.98
2018-04-07T00:50:39.380Z,77.98
2018-04-07T00:51:40.111Z,77.98
2018-04-07T00:52:39.963Z,77.89
2018-04-07T00:53:39.921Z,77.89
2018-04-07T00:54:39.700Z,77.89
2018-04-07T00:55:39.678Z,77.79
2018-04-07T00:56:39.629Z,77.70
2018-04-07T00:57:39.672Z,77.70
2018-04-07T00:59:00.426Z,77.98
2018-04-07T01:00:22.205Z,77.98
2018-04-07T01:01:23.100Z,78.08
2018-04-07T01:03:05.277Z,78.27
2018-04-07T01:04:05.909Z,78.17
2018-04-07T01:05:05.538Z,77.98
2018-04-07T01:06:06.010Z,77.79
2018-04-07T01:07:27.490Z,77.60
2018-04-07T01:08:28.083Z,77.79
2018-04-07T01:09:27.770Z,77.70
2018-04-07T01:10:48.272Z,77.70
2018-04-07T01:11:48.818Z,77.60
2018-04-07T01:13:30.371Z,77.41
2018-04-07T01:14:31.136Z,77.22
2018-04-07T01:15:30.646Z,77.31
2018-04-07T01:16:30.346Z,77.12
2018-04-07T01:17:30.861Z,77.22
2018-04-07T01:18:32.335Z,77.22
2018-04-07T01:19:34.468Z,77.22
2018-04-07T01:20:30.597Z,76.93
2018-04-07T01:21:35.242Z,76.93
2018-04-07T01:23:00.445Z,77.03
2018-04-07T01:24:00.336Z,76.93
2018-04-07T01:24:59.160Z,77.03
2018-04-07T01:26:02.168Z,77.03
2018-04-07T01:27:04.117Z,76.84
2018-04-07T01:28:23.501Z,76.84
2018-04-07T01:29:24.952Z,77.03
2018-04-07T01:30:23.580Z,77.03
2018-04-07T01:31:23.648Z,77.31
2018-04-07T01:32:24.900Z,77.41
2018-04-07T01:33:27.971Z,77.22
2018-04-07T01:34:26.814Z,77.41
2018-04-07T01:35:24.396Z,77.41
2018-04-07T01:36:24.892Z,77.22
2018-04-07T01:37:25.748Z,77.12
2018-04-07T01:38:24.710Z,77.22
2018-04-07T01:39:25.021Z,77.22
2018-04-07T01:40:26.970Z,77.03
2018-04-07T01:41:25.859Z,76.93
2018-04-07T01:42:52.711Z,76.75
2018-04-07T01:43:55.828Z,76.65
2018-04-07T01:44:58.190Z,76.65
2018-04-07T01:45:52.872Z,76.84
2018-04-07T01:46:53.597Z,76.75
2018-04-07T01:47:53.408Z,76.84
2018-04-07T01:48:53.476Z,76.84
2018-04-07T01:49:55.250Z,76.93
2018-04-07T01:50:53.111Z,77.12
2018-04-07T01:52:17.383Z,77.41
2018-04-07T01:53:15.395Z,77.41
2018-04-07T01:54:15.148Z,77.41
2018-04-07T01:55:14.702Z,77.41
2018-04-07T01:56:15.634Z,77.03
2018-04-07T01:57:15.624Z,77.03
2018-04-07T01:58:15.599Z,77.03
2018-04-07T01:59:15.271Z,77.12
2018-04-07T02:00:17.564Z,77.03
2018-04-07T02:01:45.405Z,77.03
2018-04-07T02:02:38.457Z,77.12
2018-04-07T02:03:38.070Z,77.03
2018-04-07T02:04:44.094Z,76.84
2018-04-07T02:05:40.314Z,76.84
2018-04-07T02:06:38.131Z,77.03
2018-04-07T02:07:40.121Z,77.03
2018-04-07T02:08:39.161Z,77.12
2018-04-07T02:09:41.570Z,77.12
2018-04-07T02:10:41.705Z,77.31
2018-04-07T02:11:41.217Z,77.41
2018-04-07T02:12:38.227Z,77.22
2018-04-07T02:14:00.780Z,77.22
2018-04-07T02:15:22.035Z,77.31
2018-04-07T02:16:23.104Z,77.41
2018-04-07T02:17:22.654Z,77.51
2018-04-07T02:18:22.452Z,77.31
2018-04-07T02:19:22.096Z,77.60
2018-04-07T02:20:22.651Z,77.70
2018-04-07T02:21:22.531Z,77.98
2018-04-07T02:22:22.125Z,78.08
2018-04-07T02:23:23.238Z,77.89
2018-04-07T02:24:22.835Z,78.08
2018-04-07T02:25:22.788Z,77.98
2018-04-07T02:26:22.271Z,77.89
2018-04-07T02:27:22.727Z,77.89
2018-04-07T02:28:23.456Z,78.08
2018-04-07T02:29:22.086Z,78.17
2018-04-07T02:30:23.356Z,78.17
2018-04-07T02:31:23.916Z,78.08
2018-04-07T02:32:23.438Z,78.08
2018-04-07T02:33:23.207Z,78.17
2018-04-07T02:34:22.642Z,78.13
2018-04-07T02:35:22.312Z,78.23
2018-04-07T02:36:55.536Z,78.23
2018-04-07T02:38:12.740Z,78.13
2018-04-07T02:38:50.917Z,78.13
2018-04-07T02:40:20.063Z,78.23
2018-04-07T02:41:18.326Z,78.32
2018-04-07T02:42:19.805Z,78.32
2018-04-07T02:43:24.053Z,78.32
2018-04-07T02:44:18.058Z,78.32
2018-04-07T02:45:17.905Z,78.23
2018-04-07T02:46:19.931Z,78.23
2018-04-07T02:47:21.189Z,78.23
2018-04-07T02:48:22.188Z,78.23
2018-04-07T02:49:20.825Z,78.32
2018-04-07T03:00:01.511Z,78.51
2018-04-07T03:01:02.012Z,78.70
2018-04-07T03:02:55.725Z,78.89
2018-04-07T03:05:54.325Z,79.27
2018-04-07T03:07:22.899Z,79.46
2018-04-07T03:21:55.805Z,80.60
2018-04-07T03:23:30.299Z,80.60
2018-04-07T03:24:30.954Z,80.60
2018-04-07T03:25:28.664Z,80.60
2018-04-07T03:29:24.438Z,80.41
2018-04-07T03:30:54.204Z,80.51
2018-04-07T03:33:53.801Z,80.69
2018-04-07T03:34:56.004Z,80.60
2018-04-07T03:36:22.284Z,80.79
2018-04-07T03:37:22.676Z,80.60
2018-04-07T03:51:54.202Z,81.13
2018-04-07T03:52:55.231Z,81.23
2018-04-07T03:55:32.567Z,81.17
2018-04-07T03:56:33.284Z,81.17
2018-04-07T03:57:54.287Z,80.88
2018-04-07T03:59:14.904Z,80.98
2018-04-07T04:00:15.559Z,80.79
2018-04-07T04:01:15.810Z,80.79
2018-04-07T04:02:36.180Z,80.88
2018-04-07T04:03:36.851Z,80.69
2018-04-07T04:04:37.356Z,80.79
2018-04-07T04:05:36.630Z,80.88
2018-04-07T04:06:37.433Z,81.07
2018-04-07T04:07:37.151Z,80.88
2018-04-07T04:08:36.903Z,80.79
2018-04-07T04:09:36.199Z,80.69
2018-04-07T04:10:37.099Z,80.79
2018-04-07T04:11:36.807Z,80.79
2018-04-07T04:12:37.194Z,80.79
2018-04-07T04:13:36.973Z,80.98
2018-04-07T04:14:36.228Z,80.98
2018-04-07T04:16:18.621Z,80.88
2018-04-07T04:17:19.075Z,80.79
2018-04-07T04:18:19.446Z,80.88
2018-04-07T04:19:19.097Z,80.88
2018-04-07T04:20:18.466Z,80.79
2018-04-07T04:21:19.022Z,80.69
2018-04-07T04:22:18.494Z,80.69
2018-04-07T04:23:18.790Z,80.69
2018-04-07T04:24:19.195Z,80.79
2018-04-07T04:25:19.033Z,80.88
2018-04-07T04:26:19.369Z,80.79
2018-04-07T04:27:18.722Z,80.69
2018-04-07T04:28:19.477Z,80.51
2018-04-07T04:29:19.186Z,80.41
2018-04-07T04:30:18.541Z,80.13
2018-04-07T04:31:18.750Z,80.13
2018-04-07T04:32:42.140Z,80.41
2018-04-07T04:33:43.034Z,80.41
2018-04-07T04:34:42.469Z,80.41
2018-04-07T04:35:43.208Z,80.41
2018-04-07T04:37:02.834Z,80.51
2018-04-07T04:38:03.533Z,80.51
2018-04-07T04:39:03.452Z,80.51
2018-04-07T04:40:03.238Z,80.51
2018-04-07T04:41:04.101Z,80.69
2018-04-07T04:42:03.967Z,80.79
2018-04-07T04:43:03.639Z,80.84
2018-04-07T04:44:03.087Z,81.04
2018-04-07T04:45:03.545Z,81.13
2018-04-07T04:46:03.155Z,81.13
2018-04-07T04:47:03.835Z,81.13
2018-04-07T04:48:03.516Z,81.13
2018-04-07T04:49:02.921Z,81.13
2018-04-07T04:50:03.427Z,81.13
2018-04-07T04:51:03.708Z,80.94
2018-04-07T04:52:03.329Z,81.13
2018-04-07T04:53:03.684Z,81.23
2018-04-07T04:54:03.349Z,81.32
2018-04-07T04:55:04.368Z,81.41
2018-04-07T04:56:28.139Z,81.32
2018-04-07T04:57:27.779Z,81.36
2018-04-07T04:58:27.624Z,81.36
2018-04-07T05:00:45.587Z,81.26
2018-04-07T05:01:46.011Z,81.36
2018-04-07T05:02:45.742Z,81.36
2018-04-07T05:03:46.425Z,81.45
2018-04-07T05:05:07.193Z,81.55
2018-04-07T05:06:08.034Z,81.45
2018-04-07T05:07:07.616Z,81.36
2018-04-07T05:08:08.413Z,81.17
2018-04-07T05:09:08.584Z,81.07
2018-04-07T05:52:33.216Z,71.00
2018-04-07T05:53:33.761Z,70.90
2018-04-07T05:54:33.457Z,70.81
2018-04-07T05:55:34.128Z,70.52
2018-04-07T05:56:33.677Z,70.33
2018-04-07T05:58:21.754Z,70.52
2018-04-07T05:59:50.883Z,70.62
2018-04-07T06:02:11.245Z,70.05
2018-04-07T06:03:53.540Z,70.43
2018-04-07T06:05:13.520Z,70.52
2018-04-07T06:06:57.426Z,70.81
2018-04-07T06:07:58.867Z,71.15
2018-04-07T06:10:06.757Z,71.91
2018-04-07T06:11:35.080Z,71.82
2018-04-07T06:12:38.325Z,71.53
2018-04-07T06:13:36.272Z,71.63
2018-04-07T06:15:34.330Z,72.11
2018-04-07T06:18:19.277Z,72.67
2018-04-07T06:19:20.147Z,72.39
2018-04-07T06:20:20.128Z,72.39
2018-04-07T06:21:20.971Z,72.58
2018-04-07T06:22:20.872Z,72.58
2018-04-07T06:23:40.845Z,72.39
2018-04-07T06:24:41.115Z,72.58
2018-04-07T06:25:41.915Z,72.77
2018-04-07T06:26:41.712Z,72.96
2018-04-07T06:27:41.680Z,72.86
2018-04-07T06:28:43.178Z,72.58
2018-04-07T06:29:45.188Z,72.33
2018-04-07T06:30:41.225Z,71.57
2018-04-07T06:31:43.310Z,70.27
2018-04-07T06:32:41.749Z,69.89
2018-04-07T06:33:41.871Z,69.35
2018-04-07T06:34:44.741Z,68.21
2018-04-07T06:35:41.290Z,67.64
2018-04-07T06:36:42.400Z,67.74
2018-04-07T06:37:41.987Z,67.20
2018-04-07T06:38:41.786Z,66.78
2018-04-07T06:39:40.730Z,66.53
2018-04-07T06:40:41.773Z,66.15
2018-04-07T06:41:41.276Z,65.67
2018-04-07T06:42:42.159Z,65.04
2018-04-07T06:43:41.103Z,64.56
2018-04-07T06:44:40.770Z,64.37
2018-04-07T06:45:41.809Z,64.65
2018-04-07T06:46:42.279Z,64.75
2018-04-07T06:47:41.973Z,64.56
2018-04-07T06:48:41.151Z,64.47
2018-04-07T06:50:03.182Z,64.28
2018-04-07T06:51:04.539Z,63.99
2018-04-07T06:52:03.255Z,63.73
2018-04-07T06:53:02.970Z,63.26
2018-04-07T06:54:02.884Z,62.49
2018-04-07T06:55:02.569Z,62.21
2018-04-07T06:56:03.536Z,62.02
2018-04-07T06:57:06.062Z,62.21
2018-04-07T06:58:04.440Z,62.30
2018-04-07T06:59:25.060Z,62.11
2018-04-07T07:00:26.114Z,62.59
2018-04-07T07:01:26.254Z,62.78
2018-04-07T07:02:26.407Z,62.24
2018-04-07T07:03:25.598Z,61.66
2018-04-07T07:04:26.242Z,61.38
2018-04-07T07:05:27.121Z,61.38
2018-04-07T07:06:28.360Z,61.03
2018-04-07T07:08:19.991Z,60.30
2018-04-07T07:09:17.920Z,59.72
2018-04-07T07:10:41.403Z,59.05
2018-04-07T07:11:42.052Z,59.12
2018-04-07T07:12:45.287Z,59.78
2018-04-07T07:13:43.459Z,60.07
2018-04-07T07:14:43.319Z,59.53
2018-04-07T07:15:41.249Z,59.05
2018-04-07T07:17:07.690Z,58.76
2018-04-07T07:18:05.309Z,59.05
2018-04-07T07:19:27.814Z,58.48
2018-04-07T07:20:28.918Z,58.67
2018-04-07T07:21:32.552Z,58.29
2018-04-07T07:22:38.516Z,58.29
2018-04-07T07:23:30.423Z,58.41
2018-04-07T07:24:29.899Z,57.75
2018-04-07T07:25:29.831Z,57.07
2018-04-07T07:26:28.207Z,56.82
2018-04-07T07:27:28.337Z,56.75
2018-04-07T07:28:28.641Z,55.60
2018-04-07T07:29:28.754Z,55.51
2018-04-07T07:30:26.650Z,55.15
2018-04-07T07:31:52.253Z,54.48
2018-04-07T07:32:54.074Z,54.60
2018-04-07T07:33:52.171Z,54.03
2018-04-07T07:34:52.930Z,53.64
2018-04-07T07:35:51.929Z,53.28
2018-04-07T07:37:21.080Z,52.50
2018-04-07T07:38:19.689Z,52.66
2018-04-07T07:39:18.991Z,53.62
2018-04-07T07:41:01.552Z,54.57
2018-04-07T07:42:03.629Z,54.48
2018-04-07T07:43:02.911Z,54.38
2018-04-07T07:44:01.628Z,54.32
2018-04-07T07:45:04.094Z,53.42
2018-04-07T07:46:03.664Z,53.42
2018-04-07T07:47:23.763Z,53.71
2018-04-07T07:48:24.362Z,54.00
2018-04-07T07:49:25.298Z,53.93
2018-04-07T07:50:26.069Z,53.45
2018-04-07T07:51:24.247Z,52.97
2018-04-07T07:52:24.419Z,52.81
2018-04-07T07:53:24.926Z,52.78
2018-04-07T07:54:24.372Z,52.97
2018-04-07T07:56:21.480Z,53.26
2018-04-07T07:57:19.513Z,53.36
2018-04-07T07:58:45.690Z,53.36
2018-04-07T08:00:03.095Z,53.00
2018-04-07T08:01:02.969Z,52.91
2018-04-07T08:02:03.035Z,52.81
2018-04-07T08:03:05.038Z,52.71
2018-04-07T08:04:03.093Z,52.07
2018-04-07T08:05:07.052Z,51.97
2018-04-07T08:07:12.046Z,51.14
2018-04-07T08:08:10.602Z,50.84
2018-04-07T08:09:08.679Z,50.65
2018-04-07T08:11:32.143Z,50.68
2018-04-07T08:12:31.980Z,50.27
2018-04-07T08:13:59.737Z,50.58
2018-04-07T08:16:45.715Z,49.82
2018-04-07T08:18:07.144Z,49.55
2018-04-07T08:19:08.201Z,49.52
2018-04-07T08:20:31.514Z,50.56
2018-04-07T08:21:31.274Z,50.56
2018-04-07T08:22:31.632Z,50.58
2018-04-07T08:23:31.767Z,50.20
2018-04-07T08:25:16.378Z,49.65
2018-04-07T08:26:47.033Z,49.36
2018-04-07T08:27:42.293Z,49.52
2018-04-07T08:28:46.176Z,49.91
2018-04-07T08:29:42.815Z,50.01
2018-04-07T08:30:42.838Z,49.82
2018-04-07T08:31:41.776Z,49.65
2018-04-07T08:32:42.839Z,49.48
2018-04-07T08:33:41.635Z,48.61
2018-04-07T08:34:42.959Z,48.54
2018-04-07T08:36:13.056Z,48.25
2018-04-07T08:37:14.747Z,48.25
2018-04-07T08:38:13.566Z,47.68
2018-04-07T08:40:11.686Z,47.68
2018-04-07T08:41:11.570Z,47.20
2018-04-07T08:42:13.154Z,47.58
2018-04-07T08:43:14.381Z,47.61
2018-04-07T08:44:48.761Z,47.13
2018-04-07T08:46:13.126Z,47.22
2018-04-07T08:47:13.543Z,46.91
2018-04-07T08:48:13.298Z,47.20
2018-04-07T08:49:13.548Z,47.58
2018-04-07T08:50:14.079Z,47.49
2018-04-07T08:51:36.091Z,47.63
2018-04-07T08:52:57.040Z,46.98
2018-04-07T08:53:58.454Z,46.04
2018-04-07T08:54:57.892Z,45.65
2018-04-07T08:55:57.900Z,45.17
2018-04-07T08:56:57.704Z,44.98
2018-04-07T08:57:57.616Z,44.98
2018-04-07T08:59:39.171Z,45.29
2018-04-07T09:00:40.055Z,44.32
2018-04-07T09:01:39.540Z,44.42
2018-04-07T09:02:39.566Z,43.77
2018-04-07T09:03:39.758Z,43.21
2018-04-07T09:04:39.874Z,42.46
2018-04-07T09:05:40.556Z,41.60
2018-04-07T09:06:39.206Z,41.78
2018-04-07T09:07:40.026Z,41.71
2018-04-07T09:08:39.682Z,40.96
2018-04-07T09:10:01.548Z,40.77
2018-04-07T09:11:01.622Z,40.96
2018-04-07T09:12:23.752Z,41.25
2018-04-07T09:13:24.412Z,41.25
2018-04-07T09:14:23.887Z,40.61
2018-04-07T09:15:44.488Z,39.47
2018-04-07T09:16:45.490Z,39.04
2018-04-07T09:18:06.792Z,40.01
2018-04-07T09:19:07.532Z,39.64
2018-04-07T09:20:07.463Z,39.78
2018-04-07T09:21:07.515Z,38.60
2018-04-07T09:22:07.468Z,38.79
2018-04-07T09:23:07.353Z,39.06
2018-04-07T09:24:07.390Z,40.03
2018-04-07T09:25:07.449Z,39.53
2018-04-07T09:26:06.900Z,38.66
2018-04-07T09:27:06.860Z,38.29
2018-04-07T09:28:06.954Z,38.21
2018-04-07T09:29:06.609Z,39.18
2018-04-07T09:30:30.839Z,38.35
2018-04-07T09:31:30.464Z,37.79
2018-04-07T09:32:31.241Z,37.57
2018-04-07T09:33:31.242Z,37.48
2018-04-07T09:34:31.076Z,37.67
2018-04-07T09:36:12.232Z,37.49
2018-04-07T09:37:13.270Z,37.32
2018-04-07T09:38:13.090Z,37.03
2018-04-07T09:39:34.626Z,37.03
2018-04-07T09:40:36.183Z,37.32
2018-04-07T09:41:34.980Z,36.72
2018-04-07T09:42:34.669Z,37.21
2018-04-07T09:43:35.573Z,37.40
2018-04-07T09:44:35.218Z,36.91
2018-04-07T09:45:56.800Z,37.40
2018-04-07T09:46:57.333Z,37.71
2018-04-07T09:47:56.927Z,37.32
2018-04-07T09:48:56.643Z,37.23
2018-04-07T09:49:57.314Z,36.16
2018-04-07T09:50:56.953Z,35.78
2018-04-07T09:51:56.898Z,35.61
2018-04-07T09:52:56.901Z,35.61
2018-04-07T09:53:56.819Z,35.51
2018-04-07T09:54:56.567Z,36.00
2018-04-07T09:55:57.273Z,35.90
2018-04-07T09:56:56.988Z,35.61
2018-04-07T09:57:57.067Z,35.13
2018-04-07T09:59:18.145Z,34.93
2018-04-07T10:00:17.841Z,34.46
2018-04-07T10:01:40.142Z,34.38
2018-04-07T10:02:40.205Z,34.50
2018-04-07T10:03:40.705Z,34.30
2018-04-07T10:04:40.289Z,33.99
2018-04-07T10:05:40.450Z,34.58
2018-04-07T10:06:40.503Z,34.28
2018-04-07T10:07:40.507Z,34.56
2018-04-07T10:08:40.078Z,34.95
2018-04-07T10:09:40.745Z,35.33
2018-04-07T10:10:40.443Z,34.75
2018-04-07T10:11:40.312Z,34.95
2018-04-07T10:12:40.294Z,35.63
2018-04-07T10:13:39.919Z,35.24
2018-04-07T10:14:40.672Z,35.63
2018-04-07T10:16:02.738Z,35.17
2018-04-07T10:17:02.648Z,34.67
2018-04-07T10:18:02.667Z,34.38
2018-04-07T10:19:02.582Z,34.83
2018-04-07T10:20:02.423Z,35.14
2018-04-07T10:21:02.123Z,34.67
2018-04-07T10:22:03.107Z,34.59
2018-04-07T10:23:02.177Z,34.70
2018-04-07T10:24:23.867Z,34.22
2018-04-07T10:25:24.556Z,34.63
2018-04-07T10:26:24.779Z,34.55
2018-04-07T10:27:24.590Z,34.37
2018-04-07T10:28:24.505Z,33.39
2018-04-07T10:29:24.159Z,33.20
2018-04-07T10:30:24.509Z,32.81
2018-04-07T10:31:24.526Z,33.11
2018-04-07T10:32:24.632Z,33.11
2018-04-07T10:33:24.428Z,32.73
2018-04-07T10:34:24.387Z,31.57
2018-04-07T10:35:24.366Z,31.87
2018-04-07T10:36:23.875Z,31.35
2018-04-07T10:37:48.018Z,31.93
2018-04-07T10:38:48.787Z,32.50
2018-04-07T10:39:49.482Z,33.18
2018-04-07T10:40:48.451Z,32.70
2018-04-07T10:41:48.026Z,32.49
2018-04-07T10:43:10.088Z,33.26
2018-04-07T10:44:31.130Z,33.58
2018-04-07T10:45:31.880Z,33.09
2018-04-07T10:46:31.872Z,33.26
2018-04-07T10:47:31.797Z,33.67
2018-04-07T10:48:31.548Z,33.46
2018-04-07T10:49:31.440Z,33.58
2018-04-07T10:50:31.062Z,33.59
2018-04-07T10:51:31.628Z,32.82
2018-04-07T10:52:31.234Z,33.11
2018-04-07T10:53:31.241Z,33.04
2018-04-07T10:54:31.407Z,32.53
2018-04-07T10:55:31.496Z,32.94
2018-04-07T10:56:32.208Z,33.06
2018-04-07T10:57:31.480Z,32.16
2018-04-07T10:58:31.675Z,32.16
2018-04-07T10:59:31.509Z,31.95
2018-04-07T11:00:31.703Z,32.05
2018-04-07T11:01:31.538Z,31.59
2018-04-07T11:02:31.550Z,31.51
2018-04-07T11:03:52.857Z,31.70
2018-04-07T11:04:53.980Z,31.41
2018-04-07T11:05:54.077Z,31.51
2018-04-07T11:06:54.032Z,31.59
2018-04-07T11:07:53.805Z,31.77
2018-04-07T11:08:53.591Z,31.85
2018-04-07T11:09:53.571Z,31.56
2018-04-07T11:10:53.816Z,32.15
2018-04-07T11:11:53.656Z,31.95
2018-04-07T11:12:53.748Z,32.24
2018-04-07T11:13:53.497Z,32.28
2018-04-07T11:14:53.575Z,31.49
2018-04-07T11:15:53.441Z,32.08
2018-04-07T11:16:53.624Z,31.67
2018-04-07T11:18:14.644Z,31.77
2018-04-07T11:19:16.948Z,31.56
2018-04-07T11:20:15.757Z,31.76
2018-04-07T11:21:18.556Z,32.05
2018-04-07T11:22:15.891Z,32.16
2018-04-07T11:23:15.513Z,31.38
2018-04-07T11:24:15.615Z,31.19
2018-04-07T11:25:15.369Z,31.30
2018-04-07T11:26:15.288Z,30.93
2018-04-07T11:27:14.923Z,30.91
2018-04-07T11:28:15.876Z,30.63
2018-04-07T11:29:36.380Z,30.44
2018-04-07T11:30:37.431Z,30.91
2018-04-07T11:31:37.138Z,31.22
2018-04-07T11:32:37.215Z,30.99
2018-04-07T11:33:36.966Z,32.15
2018-04-07T11:34:36.849Z,32.03
2018-04-07T11:35:36.930Z,32.11
2018-04-07T11:36:58.149Z,32.79
2018-04-07T11:37:57.879Z,32.32
2018-04-07T11:38:58.871Z,32.15
2018-04-07T11:40:40.256Z,30.49
2018-04-07T11:42:03.281Z,30.99
2018-04-07T11:43:04.015Z,30.90
2018-04-07T11:44:03.608Z,31.48
2018-04-07T11:45:04.515Z,31.98
2018-04-07T11:46:04.164Z,31.79
2018-04-07T11:47:04.372Z,31.20
2018-04-07T11:48:04.674Z,32.37
2018-04-07T11:49:04.313Z,31.80
2018-04-07T11:50:04.186Z,30.93
2018-04-07T11:51:03.874Z,31.22
2018-04-07T11:52:03.879Z,31.23
2018-04-07T11:53:03.530Z,30.84
2018-04-07T11:54:04.236Z,30.65
2018-04-07T11:55:04.308Z,30.65
2018-04-07T11:56:04.076Z,30.35
2018-04-07T11:57:04.027Z,29.96
2018-04-07T11:58:04.083Z,30.16
2018-04-07T11:59:03.853Z,30.26
2018-04-07T12:00:03.839Z,30.96
2018-04-07T12:01:25.031Z,30.48
2018-04-07T12:02:24.594Z,29.39
2018-04-07T12:03:25.454Z,30.16
2018-04-07T12:04:25.552Z,29.77
2018-04-07T12:05:25.629Z,29.56
2018-04-07T12:06:25.573Z,30.42
2018-04-07T12:07:46.553Z,30.70
2018-04-07T12:08:47.614Z,30.70
2018-04-07T12:09:47.222Z,31.37
2018-04-07T12:11:07.620Z,32.06
2018-04-07T12:12:08.321Z,31.48
2018-04-07T12:13:07.913Z,32.06
2018-04-07T12:14:08.665Z,32.39
2018-04-07T12:15:08.232Z,31.12
2018-04-07T12:16:08.225Z,31.13
2018-04-07T12:17:08.469Z,30.47
2018-04-07T12:18:08.107Z,30.18
2018-04-07T12:19:08.772Z,29.98
2018-04-07T12:20:08.553Z,30.16
2018-04-07T12:21:08.416Z,30.54
2018-04-07T12:22:08.222Z,30.74
2018-04-07T12:23:09.928Z,30.35
2018-04-07T12:24:08.195Z,30.37
2018-04-07T12:25:08.476Z,29.98
2018-04-07T12:26:30.113Z,29.98
2018-04-07T12:27:30.339Z,30.08
2018-04-07T12:28:30.282Z,29.47
2018-04-07T12:29:30.158Z,30.63
2018-04-07T12:30:30.320Z,30.54
2018-04-07T12:31:30.391Z,30.45
2018-04-07T12:32:50.852Z,30.16
2018-04-07T12:34:11.706Z,31.02
2018-04-07T12:35:11.791Z,31.41
2018-04-07T12:36:33.572Z,30.03
2018-04-07T12:37:34.649Z,30.24
2018-04-07T12:38:34.630Z,30.15
2018-04-07T12:39:34.469Z,29.85
2018-04-07T12:40:34.624Z,30.54
2018-04-07T12:41:34.473Z,30.54
2018-04-07T12:42:34.186Z,31.04
2018-04-07T12:43:34.292Z,30.65
2018-04-07T12:44:55.984Z,30.94
2018-04-07T12:45:56.576Z,30.44
2018-04-07T12:46:56.392Z,31.04
2018-04-07T12:48:17.547Z,30.93
2018-04-07T12:49:18.339Z,31.62
2018-04-07T12:50:18.179Z,30.66
2018-04-07T12:51:17.760Z,30.16
2018-04-07T12:52:18.038Z,30.18
2018-04-07T12:53:18.530Z,29.80
2018-04-07T12:54:18.195Z,29.52
2018-04-07T12:55:18.164Z,29.03
2018-04-07T12:56:17.988Z,28.81
2018-04-07T12:57:38.531Z,28.71
2018-04-07T12:58:39.245Z,29.98
2018-04-07T12:59:39.192Z,30.08
2018-04-07T13:00:39.251Z,29.98
2018-04-07T13:01:39.207Z,30.45
2018-04-07T13:02:39.348Z,30.15
2018-04-07T13:03:39.129Z,30.76
2018-04-07T13:04:39.291Z,30.58
2018-04-07T13:05:39.450Z,29.99
2018-04-07T13:06:39.224Z,29.41
2018-04-07T13:07:39.446Z,28.63
2018-04-07T13:08:39.193Z,28.33
2018-04-07T13:10:00.515Z,28.72
2018-04-07T13:11:01.266Z,28.53
2018-04-07T13:12:01.271Z,29.50
2018-04-07T13:14:03.407Z,29.56
2018-04-07T13:15:25.457Z,29.82
2018-04-07T13:16:26.641Z,30.10
2018-04-07T13:17:25.428Z,30.49
2018-04-07T13:18:26.444Z,31.09
2018-04-07T13:19:26.284Z,31.09
2018-04-07T13:20:48.004Z,31.09
2018-04-07T13:21:48.006Z,31.49
2018-04-07T13:23:10.077Z,30.34
2018-04-07T13:24:10.738Z,30.03
2018-04-07T13:25:10.418Z,30.15
2018-04-07T13:26:31.990Z,29.85
2018-04-07T13:27:32.827Z,29.74
2018-04-07T13:28:32.941Z,29.72
2018-04-07T13:29:53.484Z,30.98
2018-04-07T13:30:54.725Z,30.28
2018-04-07T13:31:54.361Z,30.47
2018-04-07T13:32:54.470Z,30.65
2018-04-07T13:34:15.581Z,30.47
2018-04-07T13:35:17.021Z,30.39
2018-04-07T13:36:15.978Z,30.41
2018-04-07T13:37:37.757Z,30.02
2018-04-07T13:38:38.703Z,30.08
2018-04-07T13:39:38.479Z,30.18
2018-04-07T13:40:59.862Z,30.38
2018-04-07T13:42:00.498Z,30.47
2018-04-07T13:43:00.466Z,30.18
2018-04-07T13:44:00.349Z,30.19
2018-04-07T13:45:00.112Z,30.39
2018-04-07T13:46:23.111Z,30.28
2018-04-07T13:47:22.747Z,30.08
2018-04-07T13:48:44.564Z,30.57
2018-04-07T13:50:07.017Z,30.47
2018-04-07T13:51:06.853Z,30.57
2018-04-07T13:52:08.002Z,30.08
2018-04-07T13:53:06.761Z,29.69
2018-04-07T13:54:07.776Z,30.57
2018-04-07T13:55:07.587Z,30.77
2018-04-07T13:56:29.253Z,30.77
2018-04-07T13:57:29.296Z,30.67
2018-04-07T13:58:28.996Z,31.25
2018-04-07T13:59:29.558Z,30.08
2018-04-07T14:00:29.224Z,31.16
2018-04-07T14:01:29.340Z,29.97
2018-04-07T14:02:29.652Z,30.83
2018-04-07T14:03:29.746Z,31.51
2018-04-07T14:04:29.552Z,32.31
2018-04-07T14:05:29.294Z,32.03
2018-04-07T14:06:31.175Z,31.74
2018-04-07T14:07:30.159Z,30.87
2018-04-07T14:08:53.169Z,31.04
2018-04-07T14:09:55.796Z,30.83
2018-04-07T14:10:52.997Z,30.64
2018-04-07T14:11:53.463Z,30.83
2018-04-07T14:12:53.103Z,31.24
2018-04-07T14:13:52.124Z,31.64
2018-04-07T14:14:52.350Z,30.87
2018-04-07T14:15:52.581Z,31.54
2018-04-07T14:16:53.148Z,30.38
2018-04-07T14:17:53.055Z,30.55
2018-04-07T14:18:52.671Z,30.44
2018-04-07T14:19:52.826Z,31.01
2018-04-07T14:20:53.595Z,31.58
2018-04-07T14:22:17.409Z,32.54
2018-04-07T14:23:19.930Z,32.82
2018-04-07T14:24:16.793Z,32.54
2018-04-07T14:25:16.916Z,33.02
2018-04-07T14:26:16.999Z,33.04
2018-04-07T14:27:16.873Z,33.34
2018-04-07T14:28:16.706Z,32.96
2018-04-07T14:29:16.577Z,32.65
2018-04-07T14:30:16.602Z,32.55
2018-04-07T14:31:16.550Z,32.73
2018-04-07T14:32:38.349Z,33.02
2018-04-07T14:33:59.749Z,33.70
2018-04-07T14:35:00.202Z,33.51
2018-04-07T14:36:00.017Z,33.51
2018-04-07T14:37:01.064Z,33.39
2018-04-07T14:37:59.793Z,33.78
2018-04-07T14:39:22.138Z,33.98
2018-04-07T14:40:22.002Z,34.08
2018-04-07T14:41:23.117Z,34.08
2018-04-07T14:42:21.961Z,33.98
2018-04-07T14:43:44.869Z,34.87
2018-04-07T14:44:44.738Z,33.98
2018-04-07T14:45:45.615Z,33.78
2018-04-07T14:47:07.053Z,34.17
2018-04-07T14:48:06.984Z,34.25
2018-04-07T14:49:08.124Z,34.93
2018-04-07T14:50:08.111Z,34.64
2018-04-07T14:51:48.429Z,34.74
2018-04-07T14:52:49.499Z,34.74
2018-04-07T14:53:49.526Z,34.36
2018-04-07T14:54:49.517Z,35.53
2018-04-07T14:55:49.249Z,34.36
2018-04-07T14:56:49.199Z,34.74
2018-04-07T14:57:49.117Z,34.64
2018-04-07T14:58:48.897Z,34.83
2018-04-07T14:59:48.569Z,33.88
2018-04-07T15:00:54.708Z,34.54
2018-04-07T15:01:51.644Z,34.95
2018-04-07T15:03:08.947Z,34.83
2018-04-07T15:04:08.977Z,35.30
2018-04-07T15:05:09.007Z,35.40
2018-04-07T15:06:09.232Z,35.59
2018-04-07T15:07:08.182Z,35.78
2018-04-07T15:08:29.074Z,36.10
2018-04-07T15:09:28.931Z,35.61
2018-04-07T15:10:29.679Z,35.98
2018-04-07T15:11:29.713Z,36.08
2018-04-07T15:12:29.725Z,35.98
2018-04-07T15:13:29.521Z,36.36
2018-04-07T15:14:29.512Z,36.36
2018-04-07T15:15:29.352Z,36.66
2018-04-07T15:16:54.251Z,36.36
2018-04-07T15:18:36.136Z,36.36
2018-04-07T15:19:35.893Z,36.18
2018-04-07T15:20:36.708Z,36.76
2018-04-07T15:21:37.100Z,36.74
2018-04-07T15:22:36.895Z,36.83
2018-04-07T15:23:36.740Z,37.13
2018-04-07T15:24:36.451Z,37.71